createdAt,value
2019-02-04T00:00:44.218Z,23.22
2019-02-04T00:01:44.224Z,23.21
2019-02-04T00:02:44.202Z,23.21
2019-02-04T00:03:44.202Z,23.16
2019-02-04T00:04:44.219Z,23.19
2019-02-04T00:05:44.199Z,23.14
2019-02-04T00:06:44.184Z,23.35
2019-02-04T00:07:44.172Z,23.18
2019-02-04T00:08:44.165Z,23.23
2019-02-04T00:09:44.158Z,23.34
2019-02-04T00:10:44.175Z,23.16
2019-02-04T00:11:44.167Z,23.22
2019-02-04T00:12:44.160Z,23.21
2019-02-04T00:13:44.150Z,23.21
2019-02-04T00:14:44.141Z,23.22
2019-02-04T00:15:44.136Z,23.21
2019-02-04T00:16:44.136Z,23.25
2019-02-04T00:17:44.114Z,23.23
2019-02-04T00:18:44.130Z,23.22
2019-02-04T00:19:44.115Z,23.37
2019-02-04T00:20:44.117Z,23.26
2019-02-04T00:21:44.083Z,23.26
2019-02-04T00:22:44.071Z,23.35
2019-02-04T00:23:44.069Z,23.37
2019-02-04T00:24:44.118Z,23.35
2019-02-04T00:25:44.076Z,23.38
2019-02-04T00:26:51.331Z,23.47
2019-02-04T00:27:44.067Z,23.42
2019-02-04T00:28:44.043Z,23.41
2019-02-04T00:29:44.052Z,23.39
2019-02-04T00:30:44.046Z,23.45
2019-02-04T00:31:44.124Z,23.42
2019-02-04T00:32:44.031Z,23.39
2019-02-04T00:33:44.014Z,23.42
2019-02-04T00:34:43.999Z,23.49
2019-02-04T00:35:44.000Z,23.45
2019-02-04T00:36:43.982Z,23.49
2019-02-04T00:37:44.005Z,23.45
2019-02-04T00:38:43.979Z,23.49
2019-02-04T00:39:43.964Z,23.49
2019-02-04T00:40:43.955Z,23.45
2019-02-04T00:41:43.950Z,23.49
2019-02-04T00:42:43.951Z,23.41
2019-02-04T00:43:43.962Z,23.39
2019-02-04T00:44:43.941Z,23.37
2019-02-04T00:45:43.954Z,23.41
2019-02-04T00:46:52.051Z,23.34
2019-02-04T00:47:43.920Z,23.41
2019-02-04T00:48:43.918Z,23.49
2019-02-04T00:49:43.906Z,23.45
2019-02-04T00:50:43.893Z,23.47
2019-02-04T00:51:43.902Z,23.42
2019-02-04T00:52:43.890Z,23.47
2019-02-04T00:53:43.882Z,23.47
2019-02-04T00:54:43.879Z,23.54
2019-02-04T00:55:43.878Z,23.59
2019-02-04T00:56:43.885Z,23.62
2019-02-04T00:57:43.903Z,23.60
2019-02-04T00:58:43.911Z,23.63
2019-02-04T00:59:44.058Z,23.54
2019-02-04T01:00:43.854Z,23.59
2019-02-04T01:01:43.830Z,23.60
2019-02-04T01:02:43.888Z,23.67
2019-02-04T01:03:43.830Z,23.67
2019-02-04T01:04:43.830Z,23.64
2019-02-04T01:05:43.814Z,23.67
2019-02-04T01:06:43.850Z,23.60
2019-02-04T01:07:43.795Z,23.67
2019-02-04T01:08:43.793Z,23.62
2019-02-04T01:09:43.805Z,23.59
2019-02-04T01:10:43.826Z,23.57
2019-02-04T01:11:43.786Z,23.53
2019-02-04T01:12:43.775Z,23.63
2019-02-04T01:13:43.766Z,23.57
2019-02-04T01:14:43.757Z,23.59
2019-02-04T01:15:43.793Z,23.59
2019-02-04T01:16:43.756Z,23.63
2019-02-04T01:17:43.787Z,23.69
2019-02-04T01:18:43.782Z,23.74
2019-02-04T01:19:43.747Z,23.74
2019-02-04T01:20:43.772Z,23.77
2019-02-04T01:21:43.704Z,23.75
2019-02-04T01:22:43.758Z,23.86
2019-02-04T01:23:43.701Z,23.86
2019-02-04T01:24:43.701Z,23.86
2019-02-04T01:25:43.697Z,23.84
2019-02-04T01:26:43.701Z,23.93
2019-02-04T01:27:43.684Z,23.94
2019-02-04T01:28:43.677Z,23.93
2019-02-04T01:29:43.660Z,23.99
2019-02-04T01:30:43.655Z,23.92
2019-02-04T01:31:43.648Z,23.96
2019-02-04T01:32:43.652Z,24.02
2019-02-04T01:33:43.638Z,24.06
2019-02-04T01:34:43.622Z,23.99
2019-02-04T01:35:43.627Z,23.97
2019-02-04T01:36:43.629Z,23.87
2019-02-04T01:37:43.629Z,23.93
2019-02-04T01:38:43.609Z,23.89
2019-02-04T01:39:43.602Z,23.84
2019-02-04T01:40:43.595Z,23.71
2019-02-04T01:41:43.590Z,23.68
2019-02-04T01:42:43.597Z,23.79
2019-02-04T01:43:43.592Z,23.74
2019-02-04T01:44:43.615Z,23.75
2019-02-04T01:45:43.587Z,23.72
2019-02-04T01:46:43.605Z,23.78
2019-02-04T01:47:43.549Z,23.86
2019-02-04T01:48:43.559Z,23.86
2019-02-04T01:49:43.563Z,23.94
2019-02-04T01:50:43.536Z,23.99
2019-02-04T01:51:43.544Z,23.84
2019-02-04T01:52:43.521Z,23.82
2019-02-04T01:53:43.526Z,23.89
2019-02-04T01:54:43.527Z,23.81
2019-02-04T01:55:43.516Z,23.71
2019-02-04T01:56:43.510Z,23.72
2019-02-04T01:57:43.542Z,23.72
2019-02-04T01:58:43.496Z,23.87
2019-02-04T01:59:43.487Z,23.89
2019-02-04T02:00:43.485Z,23.96
2019-02-04T02:01:43.474Z,23.94
2019-02-04T02:02:43.453Z,23.92
2019-02-04T02:03:43.465Z,23.86
2019-02-04T02:04:43.481Z,23.90
2019-02-04T02:05:43.447Z,23.94
2019-02-04T02:06:43.466Z,23.92
2019-02-04T02:07:43.488Z,23.90
2019-02-04T02:08:43.437Z,23.92
2019-02-04T02:09:43.495Z,23.86
2019-02-04T02:10:43.437Z,23.86
2019-02-04T02:11:43.428Z,23.87
2019-02-04T02:12:43.412Z,23.86
2019-02-04T02:13:43.408Z,23.86
2019-02-04T02:14:43.402Z,23.84
2019-02-04T02:15:43.401Z,23.86
2019-02-04T02:16:43.377Z,23.87
2019-02-04T02:17:43.364Z,23.77
2019-02-04T02:18:43.381Z,23.82
2019-02-04T02:19:43.367Z,23.87
2019-02-04T02:20:43.370Z,23.89
2019-02-04T02:21:43.360Z,23.84
2019-02-04T02:22:43.356Z,23.90
2019-02-04T02:23:43.347Z,24.00
2019-02-04T02:24:43.338Z,23.99
2019-02-04T02:25:43.338Z,23.99
2019-02-04T02:26:43.325Z,23.92
2019-02-04T02:27:43.318Z,23.84
2019-02-04T02:28:43.317Z,23.82
2019-02-04T02:29:43.304Z,23.75
2019-02-04T02:30:43.303Z,23.74
2019-02-04T02:31:43.290Z,23.74
2019-02-04T02:32:43.286Z,23.68
2019-02-04T02:33:43.292Z,23.74
2019-02-04T02:34:43.302Z,23.71
2019-02-04T02:35:43.298Z,23.78
2019-02-04T02:36:43.281Z,23.72
2019-02-04T02:37:43.280Z,23.81
2019-02-04T02:38:43.243Z,23.90
2019-02-04T02:39:43.263Z,23.87
2019-02-04T02:40:43.258Z,23.86
2019-02-04T02:41:43.257Z,23.87
2019-02-04T02:42:43.253Z,23.84
2019-02-04T02:43:43.212Z,23.86
2019-02-04T02:44:43.224Z,23.75
2019-02-04T02:45:43.228Z,23.71
2019-02-04T02:46:43.222Z,23.62
2019-02-04T02:47:43.210Z,23.62
2019-02-04T02:48:43.214Z,23.74
2019-02-04T02:49:43.197Z,23.67
2019-02-04T02:50:43.190Z,23.60
2019-02-04T02:51:43.176Z,23.62
2019-02-04T02:52:43.167Z,23.63
2019-02-04T02:53:43.230Z,23.71
2019-02-04T02:54:43.165Z,23.69
2019-02-04T02:55:43.159Z,23.74
2019-02-04T02:56:43.166Z,23.68
2019-02-04T02:57:43.156Z,23.60
2019-02-04T02:58:43.138Z,23.63
2019-02-04T02:59:43.137Z,23.69
2019-02-04T03:00:43.129Z,23.71
2019-02-04T03:01:43.131Z,23.68
2019-02-04T03:02:43.120Z,23.75
2019-02-04T03:03:43.118Z,23.77
2019-02-04T03:04:43.114Z,23.75
2019-02-04T03:05:43.106Z,23.79
2019-02-04T03:06:43.116Z,23.77
2019-02-04T03:07:43.087Z,23.69
2019-02-04T03:08:43.079Z,23.74
2019-02-04T03:09:43.061Z,23.63
2019-02-04T03:10:43.056Z,23.67
2019-02-04T03:11:43.082Z,23.69
2019-02-04T03:12:43.062Z,23.71
2019-02-04T03:13:43.093Z,23.69
2019-02-04T03:14:43.057Z,23.78
2019-02-04T03:15:43.046Z,23.84
2019-02-04T03:16:43.070Z,23.75
2019-02-04T03:17:51.469Z,23.74
2019-02-04T03:18:43.013Z,23.75
2019-02-04T03:19:43.057Z,23.62
2019-02-04T03:20:42.997Z,23.77
2019-02-04T03:21:43.044Z,23.68
2019-02-04T03:22:43.015Z,23.72
2019-02-04T03:23:43.010Z,23.75
2019-02-04T03:24:42.981Z,23.77
2019-02-04T03:25:42.989Z,23.68
2019-02-04T03:26:43.026Z,23.72
2019-02-04T03:27:42.961Z,23.82
2019-02-04T03:28:43.010Z,23.77
2019-02-04T03:29:43.003Z,23.81
2019-02-04T03:30:43.095Z,23.75
2019-02-04T03:31:46.104Z,23.77
2019-02-04T03:32:42.943Z,23.74
2019-02-04T03:33:42.949Z,23.81
2019-02-04T03:34:42.912Z,23.86
2019-02-04T03:35:42.934Z,23.77
2019-02-04T03:36:42.912Z,23.87
2019-02-04T03:37:42.917Z,23.86
2019-02-04T03:38:42.897Z,23.90
2019-02-04T03:39:42.902Z,23.69
2019-02-04T03:40:42.896Z,23.77
2019-02-04T03:41:42.883Z,23.86
2019-02-04T03:42:42.922Z,23.74
2019-02-04T03:43:42.878Z,23.69
2019-02-04T03:44:42.870Z,23.72
2019-02-04T03:45:42.867Z,23.77
2019-02-04T03:46:42.837Z,23.82
2019-02-04T03:47:42.866Z,23.72
2019-02-04T03:48:42.840Z,23.79
2019-02-04T03:49:42.878Z,23.74
2019-02-04T03:50:42.841Z,23.78
2019-02-04T03:51:42.827Z,23.77
2019-02-04T03:52:42.821Z,23.77
2019-02-04T03:53:42.817Z,23.78
2019-02-04T03:54:42.854Z,23.77
2019-02-04T03:55:42.787Z,23.81
2019-02-04T03:56:42.810Z,23.77
2019-02-04T03:57:42.803Z,23.75
2019-02-04T03:58:42.769Z,23.71
2019-02-04T03:59:42.767Z,23.74
2019-02-04T04:00:42.790Z,23.67
2019-02-04T04:01:42.750Z,23.44
2019-02-04T04:02:42.770Z,23.07
2019-02-04T04:03:42.761Z,22.81
2019-02-04T04:04:42.729Z,22.46
2019-02-04T04:05:42.747Z,22.38
2019-02-04T04:06:42.728Z,22.39
2019-02-04T04:07:42.723Z,22.38
2019-02-04T04:08:42.718Z,22.31
2019-02-04T04:09:42.708Z,22.20
2019-02-04T04:10:42.731Z,22.08
2019-02-04T04:11:42.716Z,22.14
2019-02-04T04:12:42.733Z,22.02
2019-02-04T04:13:42.694Z,21.98
2019-02-04T04:14:42.683Z,22.06
2019-02-04T04:15:42.684Z,22.08
2019-02-04T04:16:42.706Z,21.98
2019-02-04T04:17:42.647Z,22.04
2019-02-04T04:18:42.654Z,22.01
2019-02-04T04:19:42.646Z,22.02
2019-02-04T04:20:42.638Z,22.11
2019-02-04T04:21:42.642Z,22.14
2019-02-04T04:22:42.615Z,22.19
2019-02-04T04:23:42.613Z,22.06
2019-02-04T04:24:42.612Z,22.08
2019-02-04T04:25:42.595Z,22.02
2019-02-04T04:26:42.597Z,22.06
2019-02-04T04:27:42.599Z,22.17
2019-02-04T04:28:42.568Z,22.12
2019-02-04T04:29:42.581Z,22.27
2019-02-04T04:30:42.579Z,22.29
2019-02-04T04:31:42.556Z,22.12
2019-02-04T04:32:42.553Z,22.15
2019-02-04T04:33:42.529Z,22.02
2019-02-04T04:34:42.532Z,21.86
2019-02-04T04:35:42.522Z,21.86
2019-02-04T04:36:42.515Z,21.91
2019-02-04T04:37:42.527Z,21.79
2019-02-04T04:38:42.514Z,21.74
2019-02-04T04:39:42.708Z,21.70
2019-02-04T04:40:42.494Z,21.53
2019-02-04T04:41:42.478Z,21.51
2019-02-04T04:42:42.513Z,21.45
2019-02-04T04:43:42.458Z,21.30
2019-02-04T04:44:42.479Z,21.31
2019-02-04T04:45:42.463Z,21.31
2019-02-04T04:46:42.447Z,21.28
2019-02-04T04:47:42.432Z,21.33
2019-02-04T04:48:42.446Z,21.31
2019-02-04T04:49:42.435Z,21.37
2019-02-04T04:50:42.422Z,21.19
2019-02-04T04:51:42.411Z,21.18
2019-02-04T04:52:42.410Z,21.16
2019-02-04T04:53:42.406Z,21.19
2019-02-04T04:54:42.393Z,21.27
2019-02-04T04:55:42.369Z,21.18
2019-02-04T04:56:42.384Z,21.16
2019-02-04T04:57:42.360Z,21.05
2019-02-04T04:58:42.338Z,21.09
2019-02-04T04:59:42.339Z,21.12
2019-02-04T05:00:42.338Z,21.19
2019-02-04T05:01:42.323Z,21.19
2019-02-04T05:02:42.315Z,21.24
2019-02-04T05:03:42.304Z,21.21
2019-02-04T05:04:42.289Z,21.27
2019-02-04T05:05:42.308Z,21.24
2019-02-04T05:06:42.335Z,21.30
2019-02-04T05:07:42.290Z,21.33
2019-02-04T05:08:42.263Z,21.28
2019-02-04T05:09:42.299Z,21.27
2019-02-04T05:10:42.256Z,21.21
2019-02-04T05:11:42.297Z,21.12
2019-02-04T05:12:42.244Z,21.05
2019-02-04T05:13:42.238Z,20.90
2019-02-04T05:14:42.237Z,20.98
2019-02-04T05:15:42.214Z,20.90
2019-02-04T05:16:42.203Z,20.91
2019-02-04T05:17:42.196Z,20.98
2019-02-04T05:18:42.196Z,20.82
2019-02-04T05:19:42.180Z,20.72
2019-02-04T05:20:42.171Z,20.66
2019-02-04T05:21:42.172Z,20.69
2019-02-04T05:22:42.204Z,20.69
2019-02-04T05:23:42.149Z,20.71
2019-02-04T05:24:42.144Z,20.60
2019-02-04T05:25:42.121Z,20.53
2019-02-04T05:26:42.137Z,20.64
2019-02-04T05:27:42.112Z,20.71
2019-02-04T05:28:42.103Z,20.68
2019-02-04T05:29:42.132Z,20.75
2019-02-04T05:30:42.135Z,20.72
2019-02-04T05:31:42.090Z,20.73
2019-02-04T05:32:42.119Z,20.78
2019-02-04T05:33:42.117Z,20.85
2019-02-04T05:34:42.106Z,20.83
2019-02-04T05:35:42.039Z,20.85
2019-02-04T05:36:42.030Z,20.90
2019-02-04T05:37:42.026Z,20.87
2019-02-04T05:38:42.028Z,20.94
2019-02-04T05:39:42.059Z,20.98
2019-02-04T05:40:42.015Z,21.01
2019-02-04T05:41:43.042Z,21.00
2019-02-04T05:42:41.988Z,20.90
2019-02-04T05:43:42.018Z,20.96
2019-02-04T05:44:42.009Z,20.96
2019-02-04T05:45:41.963Z,20.96
2019-02-04T05:46:41.953Z,21.06
2019-02-04T05:47:41.971Z,21.11
2019-02-04T05:48:49.063Z,21.12
2019-02-04T05:49:41.937Z,21.06
2019-02-04T05:50:41.935Z,21.09
2019-02-04T05:51:41.918Z,21.09
2019-02-04T05:52:41.945Z,21.16
2019-02-04T05:53:41.937Z,21.08
2019-02-04T05:54:41.889Z,21.16
2019-02-04T05:55:41.879Z,21.18
2019-02-04T05:56:41.871Z,21.08
2019-02-04T05:57:41.872Z,21.21
2019-02-04T05:58:41.869Z,21.12
2019-02-04T05:59:41.893Z,21.06
2019-02-04T06:00:41.849Z,21.19
2019-02-04T06:01:41.817Z,21.15
2019-02-04T06:02:41.809Z,21.06
2019-02-04T06:03:41.819Z,21.00
2019-02-04T06:04:41.798Z,21.00
2019-02-04T06:05:41.790Z,21.03
2019-02-04T06:06:41.777Z,20.97
2019-02-04T06:07:41.782Z,21.00
2019-02-04T06:08:41.786Z,21.08
2019-02-04T06:09:41.764Z,21.12
2019-02-04T06:10:41.763Z,21.03
2019-02-04T06:11:41.759Z,21.06
2019-02-04T06:12:41.750Z,21.08
2019-02-04T06:13:41.737Z,21.09
2019-02-04T06:14:41.732Z,21.05
2019-02-04T06:15:41.711Z,21.13
2019-02-04T06:18:27.792Z,21.01
2019-02-04T06:19:27.798Z,21.00
2019-02-04T06:20:27.805Z,21.01
2019-02-04T06:21:27.784Z,21.05
2019-02-04T06:22:27.770Z,21.05
2019-02-04T06:23:27.768Z,21.08
2019-02-04T06:24:27.770Z,20.97
2019-02-04T06:25:27.772Z,21.06
2019-02-04T06:26:27.751Z,21.08
2019-02-04T06:27:27.736Z,21.08
2019-02-04T06:28:27.723Z,21.24
2019-02-04T06:29:27.714Z,21.16
2019-02-04T06:30:27.714Z,21.19
2019-02-04T06:31:27.725Z,21.22
2019-02-04T06:32:27.701Z,21.19
2019-02-04T06:33:27.677Z,21.21
2019-02-04T06:34:27.690Z,21.24
2019-02-04T06:35:27.683Z,21.26
2019-02-04T06:36:27.669Z,21.26
2019-02-04T06:37:27.659Z,21.31
2019-02-04T06:38:27.666Z,21.28
2019-02-04T06:39:27.656Z,21.43
2019-02-04T06:40:27.629Z,21.33
2019-02-04T06:41:27.617Z,21.33
2019-02-04T06:42:27.693Z,21.33
2019-02-04T06:43:27.604Z,21.36
2019-02-04T06:44:27.613Z,21.27
2019-02-04T06:45:27.603Z,21.21
2019-02-04T06:46:27.595Z,21.27
2019-02-04T06:47:27.589Z,21.31
2019-02-04T06:48:27.580Z,21.28
2019-02-04T06:49:27.558Z,21.31
2019-02-04T06:50:27.572Z,21.33
2019-02-04T06:51:27.563Z,21.28
2019-02-04T06:52:27.556Z,21.31
2019-02-04T06:53:27.532Z,21.30
2019-02-04T06:54:27.514Z,21.38
2019-02-04T06:55:27.520Z,21.33
2019-02-04T06:56:27.522Z,21.37
2019-02-04T06:57:27.512Z,21.43
2019-02-04T06:58:27.491Z,21.36
2019-02-04T06:59:27.476Z,21.33
2019-02-04T07:00:27.484Z,21.31
2019-02-04T07:01:27.467Z,21.28
2019-02-04T07:02:27.472Z,21.27
2019-02-04T07:03:27.451Z,21.36
2019-02-04T07:04:27.438Z,21.37
2019-02-04T07:05:27.447Z,21.34
2019-02-04T07:06:27.441Z,21.27
2019-02-04T07:07:27.425Z,21.19
2019-02-04T07:08:27.409Z,21.31
2019-02-04T07:09:27.425Z,21.24
2019-02-04T07:10:27.411Z,21.30
2019-02-04T07:11:27.399Z,21.21
2019-02-04T07:12:27.405Z,21.31
2019-02-04T07:13:27.399Z,21.22
2019-02-04T07:14:27.381Z,21.33
2019-02-04T07:15:27.375Z,21.21
2019-02-04T07:16:27.340Z,21.21
2019-02-04T07:17:27.363Z,21.19
2019-02-04T07:18:27.328Z,21.19
2019-02-04T07:19:27.332Z,21.16
2019-02-04T07:20:27.319Z,21.21
2019-02-04T07:21:27.327Z,21.19
2019-02-04T07:22:27.334Z,21.21
2019-02-04T07:23:27.310Z,21.31
2019-02-04T07:24:27.299Z,21.38
2019-02-04T07:25:27.291Z,21.37
2019-02-04T07:26:27.272Z,21.27
2019-02-04T07:27:27.264Z,21.31
2019-02-04T07:28:27.254Z,21.33
2019-02-04T07:29:27.268Z,21.30
2019-02-04T07:30:27.246Z,21.31
2019-02-04T07:31:27.244Z,21.33
2019-02-04T07:32:27.268Z,21.34
2019-02-04T07:33:27.279Z,21.34
2019-02-04T07:34:27.363Z,21.40
2019-02-04T07:35:27.254Z,21.45
2019-02-04T07:36:27.184Z,21.38
2019-02-04T07:37:27.205Z,21.38
2019-02-04T07:38:27.230Z,21.37
2019-02-04T07:39:27.227Z,21.37
2019-02-04T07:40:27.169Z,21.33
2019-02-04T07:41:27.169Z,21.34
2019-02-04T07:42:27.170Z,21.28
2019-02-04T07:43:27.160Z,21.33
2019-02-04T07:44:27.221Z,21.27
2019-02-04T07:45:27.131Z,21.30
2019-02-04T07:46:27.167Z,21.31
2019-02-04T07:47:27.120Z,21.34
2019-02-04T07:48:27.094Z,21.31
2019-02-04T07:49:35.040Z,21.21
2019-02-04T07:50:27.102Z,21.31
2019-02-04T07:51:27.095Z,21.34
2019-02-04T07:52:27.120Z,21.34
2019-02-04T07:53:27.080Z,21.27
2019-02-04T07:54:27.062Z,21.27
2019-02-04T07:55:27.052Z,21.33
2019-02-04T07:56:27.082Z,21.36
2019-02-04T07:57:27.045Z,21.34
2019-02-04T07:58:27.045Z,21.30
2019-02-04T07:59:27.037Z,21.33
2019-02-04T08:00:27.023Z,21.37
2019-02-04T08:01:27.034Z,21.33
2019-02-04T08:02:27.013Z,21.28
2019-02-04T08:03:27.000Z,21.27
2019-02-04T08:04:26.992Z,21.33
2019-02-04T08:05:27.005Z,21.37
2019-02-04T08:06:26.959Z,21.38
2019-02-04T08:07:26.950Z,21.40
2019-02-04T08:08:26.968Z,21.45
2019-02-04T08:09:26.961Z,21.46
2019-02-04T08:10:26.960Z,21.38
2019-02-04T08:11:26.943Z,21.43
2019-02-04T08:12:26.907Z,21.42
2019-02-04T08:13:26.915Z,21.40
2019-02-04T08:14:26.924Z,21.42
2019-02-04T08:15:26.899Z,21.48
2019-02-04T08:16:26.924Z,21.43
2019-02-04T08:17:26.905Z,21.34
2019-02-04T08:18:26.872Z,21.31
2019-02-04T08:19:26.874Z,21.34
2019-02-04T08:20:26.857Z,21.28
2019-02-04T08:21:26.847Z,21.31
2019-02-04T08:22:26.859Z,21.34
2019-02-04T08:23:26.825Z,21.45
2019-02-04T08:24:26.880Z,21.28
2019-02-04T08:25:26.838Z,21.26
2019-02-04T08:26:26.802Z,21.34
2019-02-04T08:27:26.813Z,21.28
2019-02-04T08:28:26.795Z,21.37
2019-02-04T08:29:26.792Z,21.30
2019-02-04T08:30:26.793Z,21.28
2019-02-04T08:31:26.777Z,21.24
2019-02-04T08:32:26.789Z,21.18
2019-02-04T08:33:26.767Z,21.28
2019-02-04T08:34:26.752Z,21.21
2019-02-04T08:35:26.755Z,21.27
2019-02-04T08:36:26.735Z,21.28
2019-02-04T08:37:26.747Z,21.37
2019-02-04T08:38:26.714Z,21.24
2019-02-04T08:39:26.706Z,21.34
2019-02-04T08:40:26.727Z,21.33
2019-02-04T08:41:26.711Z,21.24
2019-02-04T08:42:26.731Z,21.19
2019-02-04T08:43:26.683Z,21.19
2019-02-04T08:44:26.669Z,21.24
2019-02-04T08:45:26.676Z,21.19
2019-02-04T08:46:26.666Z,21.26
2019-02-04T08:47:26.633Z,21.19
2019-02-04T08:48:26.652Z,21.11
2019-02-04T08:49:26.642Z,21.18
2019-02-04T08:50:26.616Z,21.11
2019-02-04T08:51:26.627Z,21.09
2019-02-04T08:52:26.621Z,21.05
2019-02-04T08:53:26.594Z,21.03
2019-02-04T08:54:26.604Z,21.13
2019-02-04T08:55:26.597Z,21.18
2019-02-04T08:56:26.576Z,21.16
2019-02-04T08:57:26.593Z,21.11
2019-02-04T08:58:26.579Z,21.09
2019-02-04T08:59:26.565Z,21.06
2019-02-04T09:00:26.590Z,21.22
2019-02-04T09:01:26.532Z,21.11
2019-02-04T09:02:26.580Z,21.19
2019-02-04T09:03:26.536Z,21.11
2019-02-04T09:04:26.529Z,21.06
2019-02-04T09:05:26.518Z,21.13
2019-02-04T09:06:26.508Z,21.11
2019-02-04T09:07:26.511Z,21.09
2019-02-04T09:08:26.477Z,21.08
2019-02-04T09:09:26.472Z,21.18
2019-02-04T09:10:26.477Z,21.11
2019-02-04T09:11:26.461Z,21.06
2019-02-04T09:12:26.446Z,21.15
2019-02-04T09:13:26.457Z,21.08
2019-02-04T09:14:26.442Z,21.15
2019-02-04T09:15:26.429Z,21.16
2019-02-04T09:16:26.430Z,21.22
2019-02-04T09:17:26.462Z,21.24
2019-02-04T09:18:26.403Z,21.16
2019-02-04T09:19:26.398Z,21.21
2019-02-04T09:20:26.410Z,21.18
2019-02-04T09:21:26.367Z,21.16
2019-02-04T09:22:26.371Z,21.18
2019-02-04T09:23:26.357Z,21.15
2019-02-04T09:24:26.339Z,21.19
2019-02-04T09:25:26.390Z,21.18
2019-02-04T09:26:26.322Z,21.16
2019-02-04T09:27:26.327Z,21.13
2019-02-04T09:28:26.312Z,20.98
2019-02-04T09:29:26.317Z,21.03
2019-02-04T09:30:26.445Z,20.96
2019-02-04T09:31:26.311Z,20.93
2019-02-04T09:32:26.287Z,20.97
2019-02-04T09:33:26.272Z,20.96
2019-02-04T09:34:26.290Z,20.85
2019-02-04T09:35:26.283Z,20.88
2019-02-04T09:36:26.261Z,20.91
2019-02-04T09:37:26.265Z,20.91
2019-02-04T09:38:26.251Z,20.93
2019-02-04T09:39:26.243Z,20.94
2019-02-04T09:40:26.243Z,20.88
2019-02-04T09:41:26.238Z,20.91
2019-02-04T09:42:26.210Z,20.96
2019-02-04T09:43:26.217Z,21.00
2019-02-04T09:44:26.190Z,20.94
2019-02-04T09:45:27.739Z,20.96
2019-02-04T09:46:26.192Z,21.03
2019-02-04T09:47:26.160Z,20.96
2019-02-04T09:48:26.175Z,20.93
2019-02-04T09:49:26.149Z,21.00
2019-02-04T09:50:26.145Z,21.00
2019-02-04T09:51:26.236Z,21.06
2019-02-04T09:52:26.125Z,20.96
2019-02-04T09:53:26.144Z,20.96
2019-02-04T09:54:26.116Z,20.98
2019-02-04T09:55:26.143Z,20.97
2019-02-04T09:56:26.084Z,21.09
2019-02-04T09:57:26.100Z,21.13
2019-02-04T09:58:26.075Z,21.16
2019-02-04T09:59:26.099Z,21.18
2019-02-04T10:00:26.077Z,21.05
2019-02-04T10:01:26.045Z,21.06
2019-02-04T10:02:26.070Z,21.15
2019-02-04T10:03:26.046Z,21.18
2019-02-04T10:04:26.029Z,21.13
2019-02-04T10:05:26.034Z,21.24
2019-02-04T10:06:26.024Z,21.21
2019-02-04T10:07:26.021Z,21.31
2019-02-04T10:08:26.053Z,21.27
2019-02-04T10:09:25.983Z,21.30
2019-02-04T10:10:25.993Z,21.37
2019-02-04T10:11:25.981Z,21.36
2019-02-04T10:12:25.988Z,21.31
2019-02-04T10:13:25.967Z,21.30
2019-02-04T10:14:25.960Z,21.34
2019-02-04T10:15:25.945Z,21.37
2019-02-04T10:16:25.950Z,21.43
2019-02-04T10:17:25.948Z,21.34
2019-02-04T10:18:25.935Z,21.42
2019-02-04T10:19:25.914Z,21.37
2019-02-04T10:20:33.503Z,21.37
2019-02-04T10:21:25.913Z,21.43
2019-02-04T10:22:25.902Z,21.37
2019-02-04T10:23:25.935Z,21.24
2019-02-04T10:24:25.887Z,21.27
2019-02-04T10:25:25.938Z,21.31
2019-02-04T10:26:25.879Z,21.30
2019-02-04T10:27:25.868Z,21.34
2019-02-04T10:28:25.867Z,21.36
2019-02-04T10:29:25.902Z,21.27
2019-02-04T10:30:25.885Z,21.34
2019-02-04T10:31:29.274Z,21.33
2019-02-04T10:32:25.829Z,21.31
2019-02-04T10:33:25.839Z,21.31
2019-02-04T10:34:25.808Z,21.21
2019-02-04T10:35:25.811Z,21.19
2019-02-04T10:36:25.832Z,21.19
2019-02-04T10:37:27.750Z,21.21
2019-02-04T10:38:25.793Z,21.24
2019-02-04T10:39:25.817Z,21.18
2019-02-04T10:40:25.769Z,21.06
2019-02-04T10:41:25.740Z,21.15
2019-02-04T10:42:25.804Z,21.19
2019-02-04T10:43:27.521Z,21.06
2019-02-04T10:44:25.725Z,21.11
2019-02-04T10:45:25.764Z,20.96
2019-02-04T10:46:25.699Z,21.06
2019-02-04T10:47:25.706Z,21.00
2019-02-04T10:48:25.708Z,20.91
2019-02-04T10:49:26.037Z,20.91
2019-02-04T10:50:25.732Z,20.91
2019-02-04T10:51:25.682Z,21.00
2019-02-04T10:52:25.703Z,20.91
2019-02-04T10:53:25.845Z,20.90
2019-02-04T10:54:25.675Z,20.85
2019-02-04T10:55:25.726Z,20.82
2019-02-04T10:56:25.665Z,20.91
2019-02-04T10:57:25.629Z,20.83
2019-02-04T10:58:25.668Z,20.88
2019-02-04T10:59:25.660Z,20.94
2019-02-04T11:00:25.634Z,20.85
2019-02-04T11:01:25.585Z,20.88
2019-02-04T11:02:25.588Z,20.82
2019-02-04T11:03:25.604Z,20.82
2019-02-04T11:04:25.560Z,20.85
2019-02-04T11:05:25.547Z,20.85
2019-02-04T11:06:25.558Z,20.83
2019-02-04T11:07:25.540Z,20.87
2019-02-04T11:08:25.557Z,21.01
2019-02-04T11:09:25.623Z,21.05
2019-02-04T11:10:27.273Z,21.03
2019-02-04T11:11:25.518Z,21.12
2019-02-04T11:12:25.486Z,21.01
2019-02-04T11:13:25.481Z,21.00
2019-02-04T11:14:25.519Z,21.12
2019-02-04T11:15:25.792Z,21.15
2019-02-04T11:16:25.495Z,21.19
2019-02-04T11:17:25.450Z,21.18
2019-02-04T11:18:25.530Z,21.21
2019-02-04T11:19:25.449Z,21.21
2019-02-04T11:20:25.442Z,21.22
2019-02-04T11:21:25.445Z,21.26
2019-02-04T11:22:25.424Z,21.21
2019-02-04T11:23:25.451Z,21.18
2019-02-04T11:24:25.422Z,21.15
2019-02-04T11:25:25.382Z,21.22
2019-02-04T11:26:25.408Z,21.08
2019-02-04T11:27:25.365Z,21.09
2019-02-04T11:28:25.418Z,21.15
2019-02-04T11:29:25.407Z,21.15
2019-02-04T11:30:25.411Z,21.21
2019-02-04T11:31:25.408Z,21.18
2019-02-04T11:32:25.358Z,21.19
2019-02-04T11:33:25.373Z,21.21
2019-02-04T11:34:25.318Z,21.24
2019-02-04T11:35:25.304Z,21.08
2019-02-04T11:36:25.408Z,21.06
2019-02-04T11:37:25.313Z,21.06
2019-02-04T11:38:25.352Z,21.08
2019-02-04T11:39:25.350Z,21.16
2019-02-04T11:40:25.308Z,21.16
2019-02-04T11:41:25.275Z,21.19
2019-02-04T11:42:25.365Z,21.19
2019-02-04T11:43:25.305Z,21.21
2019-02-04T11:44:25.323Z,21.21
2019-02-04T11:45:25.311Z,21.16
2019-02-04T11:46:25.232Z,21.26
2019-02-04T11:47:25.287Z,21.18
2019-02-04T11:48:25.271Z,21.26
2019-02-04T11:49:25.213Z,21.28
2019-02-04T11:50:25.186Z,21.19
2019-02-04T11:51:25.198Z,21.34
2019-02-04T11:52:25.182Z,21.30
2019-02-04T11:53:33.036Z,21.34
2019-02-04T11:54:25.160Z,21.36
2019-02-04T11:55:25.151Z,21.34
2019-02-04T11:56:25.138Z,21.30
2019-02-04T11:57:25.192Z,21.38
2019-02-04T11:58:25.123Z,21.42
2019-02-04T11:59:25.128Z,21.37
2019-02-04T12:00:25.128Z,21.33
2019-02-04T12:01:25.160Z,21.34
2019-02-04T12:02:34.268Z,21.37
2019-02-04T12:03:25.103Z,21.38
2019-02-04T12:04:25.082Z,21.40
2019-02-04T12:05:25.105Z,21.37
2019-02-04T12:06:25.083Z,21.46
2019-02-04T12:07:25.119Z,21.37
2019-02-04T12:08:25.068Z,21.38
2019-02-04T12:09:25.051Z,21.46
2019-02-04T12:10:25.157Z,21.38
2019-02-04T12:11:25.031Z,21.45
2019-02-04T12:12:25.042Z,21.34
2019-02-04T12:13:25.006Z,21.33
2019-02-04T12:14:25.021Z,21.37
2019-02-04T12:15:25.002Z,21.43
2019-02-04T12:16:25.013Z,21.43
2019-02-04T12:17:25.003Z,21.31
2019-02-04T12:18:24.991Z,21.31
2019-02-04T12:19:24.983Z,21.34
2019-02-04T12:20:24.975Z,21.34
2019-02-04T12:21:24.958Z,21.33
2019-02-04T12:22:24.965Z,21.36
2019-02-04T12:23:24.995Z,21.31
2019-02-04T12:24:24.940Z,21.37
2019-02-04T12:25:24.942Z,21.34
2019-02-04T12:26:26.814Z,21.36
2019-02-04T12:27:31.859Z,21.31
2019-02-04T12:28:24.899Z,21.33
2019-02-04T12:29:24.896Z,21.37
2019-02-04T12:30:24.889Z,21.33
2019-02-04T12:31:24.882Z,21.43
2019-02-04T12:32:24.881Z,21.43
2019-02-04T12:33:24.859Z,21.46
2019-02-04T12:34:24.859Z,21.46
2019-02-04T12:35:24.837Z,21.56
2019-02-04T12:36:24.843Z,21.52
2019-02-04T12:37:24.847Z,21.63
2019-02-04T12:38:24.815Z,21.68
2019-02-04T12:39:24.816Z,21.61
2019-02-04T12:40:24.835Z,21.67
2019-02-04T12:41:24.818Z,21.74
2019-02-04T12:42:24.781Z,21.90
2019-02-04T12:43:24.817Z,21.91
2019-02-04T12:44:24.781Z,21.90
2019-02-04T12:45:24.774Z,22.02
2019-02-04T12:46:24.772Z,21.99
2019-02-04T12:47:24.965Z,22.06
2019-02-04T12:48:24.763Z,22.11
2019-02-04T12:49:24.743Z,22.09
2019-02-04T12:50:24.734Z,22.05
2019-02-04T12:51:33.132Z,22.12
2019-02-04T12:52:24.725Z,22.12
2019-02-04T12:53:24.731Z,22.21
2019-02-04T12:54:26.594Z,22.15